Terminal Aerodrome Forecast
Issued by NWS

Home | Current Version | Previous Version | Text Only | Print | Product List | Glossary On
Versions: 1 2 3 4 5 6 7 8 9 10 11 12
000
FTUS45 KABQ 260545
TAFFMN
TAF
KFMN 260545Z 2606/2706 21011KT P6SM SCT200
     FM261000 08006KT P6SM FEW200
     FM261900 25008KT P6SM FEW100
     FM262200 28011G21KT P6SM SCT130
     FM270300 11007KT P6SM SCT130=

USA.gov is the U.S. government's official web portal to all federal, state and local government web resources and services.